Time;durP1;ratioP1;P1;durP2;ratioP2;P2;SDS_P1;SDS_P2;PMS_P1;PMS_P2;Temp;Humidity;BMP_temperature;BMP_pressure;BME280_temperature;BME280_humidity;BME280_pressure;Samples;Min_cycle;Max_cycle;Signal;HPM_P1;HPM_P2
2023/10/27 00:01:14;;;;;;;35.60;31.90;;;;;;;8.93;100.00;95931.44;106669;1277;22645;-85
2023/10/27 00:03:42;;;;;;;36.70;32.90;;;;;;;8.94;100.00;95933.52;106713;1283;22882;-84
2023/10/27 00:06:10;;;;;;;33.80;30.50;;;;;;;8.92;100.00;95933.00;106739;1283;22567;-85
2023/10/27 00:08:38;;;;;;;33.60;30.20;;;;;;;8.89;100.00;95932.91;106789;1278;22523;-86
2023/10/27 00:11:06;;;;;;;34.00;30.40;;;;;;;8.86;100.00;95938.95;106668;1279;22570;-85
2023/10/27 00:13:34;;;;;;;35.20;31.60;;;;;;;8.81;100.00;95939.64;106729;1283;22550;-85
2023/10/27 00:16:10;;;;;;;31.70;28.50;;;;;;;8.77;100.00;95949.48;106527;1271;22534;-84
2023/10/27 00:18:38;;;;;;;34.70;31.20;;;;;;;8.70;100.00;95944.58;106607;1275;25316;-84
2023/10/27 00:21:06;;;;;;;56.40;50.70;;;;;;;8.59;100.00;95946.50;106486;1284;22538;-85
2023/10/27 00:23:34;;;;;;;46.60;41.80;;;;;;;8.53;100.00;95945.86;106511;1281;22600;-85
2023/10/27 00:26:03;;;;;;;35.10;31.80;;;;;;;8.49;100.00;95942.89;106530;1275;22657;-85
2023/10/27 00:28:31;;;;;;;31.90;28.60;;;;;;;8.48;100.00;95944.14;106578;1283;22549;-85
2023/10/27 00:31:00;;;;;;;27.90;25.20;;;;;;;8.51;100.00;95949.34;106598;1278;22646;-85
2023/10/27 00:33:29;;;;;;;29.40;26.50;;;;;;;8.56;100.00;95944.95;106607;1271;22553;-85
2023/10/27 00:35:57;;;;;;;26.40;23.80;;;;;;;8.61;100.00;95943.54;106426;1283;26642;-85
2023/10/27 00:38:26;;;;;;;31.20;28.20;;;;;;;8.61;100.00;95939.14;106500;1274;23409;-85
2023/10/27 00:40:54;;;;;;;23.80;21.30;;;;;;;8.60;100.00;95930.52;106586;1268;22561;-85
2023/10/27 00:43:22;;;;;;;25.70;23.10;;;;;;;8.53;100.00;95922.38;106543;1269;22566;-85
2023/10/27 00:45:51;;;;;;;24.40;21.80;;;;;;;8.49;100.00;95923.48;106746;1283;26595;-85
2023/10/27 00:48:20;;;;;;;24.10;21.80;;;;;;;8.44;100.00;95917.95;106564;1272;22646;-85
2023/10/27 00:50:49;;;;;;;21.50;19.40;;;;;;;8.41;100.00;95914.65;106596;1283;22667;-85
2023/10/27 00:53:20;;;;;;;28.70;25.90;;;;;;;8.37;100.00;95909.19;106697;1283;23114;-85
2023/10/27 00:55:52;;;;;;;22.90;20.00;;;;;;;8.38;100.00;95901.72;106902;1283;25240;-85
2023/10/27 00:58:22;;;;;;;23.00;20.70;;;;;;;8.34;100.00;95895.98;107724;1283;23002;-85
2023/10/27 01:00:52;;;;;;;25.40;22.90;;;;;;;8.28;100.00;95892.16;109055;1283;22531;-85
2023/10/27 01:03:19;;;;;;;25.00;22.30;;;;;;;8.18;100.00;95889.39;107942;1283;22687;-84
2023/10/27 01:05:47;;;;;;;24.00;21.50;;;;;;;8.12;100.00;95888.19;108973;1282;22550;-85
2023/10/27 01:08:15;;;;;;;23.50;20.40;;;;;;;8.05;100.00;95882.73;106970;1278;22779;-86
2023/10/27 01:10:43;;;;;;;22.70;20.60;;;;;;;8.03;100.00;95883.96;106661;1283;24449;-86
2023/10/27 01:13:11;;;;;;;25.50;23.00;;;;;;;7.98;100.00;95888.86;106939;1276;22604;-87
2023/10/27 01:15:39;;;;;;;24.40;22.10;;;;;;;7.91;100.00;95891.46;106798;1277;23928;-86
2023/10/27 01:18:08;;;;;;;27.90;25.30;;;;;;;7.86;100.00;95887.60;106814;1281;23232;-86
2023/10/27 01:20:36;;;;;;;20.40;18.40;;;;;;;7.81;100.00;95882.54;106878;1283;22782;-84
2023/10/27 01:23:04;;;;;;;21.20;19.20;;;;;;;7.77;100.00;95877.31;106618;1269;25302;-85
2023/10/27 01:25:32;;;;;;;22.50;20.40;;;;;;;7.79;100.00;95879.44;106751;1283;22646;-85
2023/10/27 01:28:02;;;;;;;19.80;17.40;;;;;;;7.81;100.00;95874.84;106607;1284;25434;-85
2023/10/27 01:30:30;;;;;;;24.50;19.40;;;;;;;7.77;100.00;95869.07;106678;1271;23451;-85
2023/10/27 01:32:58;;;;;;;23.90;21.00;;;;;;;7.73;100.00;95868.85;106659;1283;24042;-87
2023/10/27 01:35:26;;;;;;;22.70;20.60;;;;;;;7.65;100.00;95868.78;106753;1271;22644;-85
2023/10/27 01:37:54;;;;;;;24.30;21.70;;;;;;;7.60;100.00;95868.75;106550;1277;23884;-85
2023/10/27 01:40:22;;;;;;;25.10;22.80;;;;;;;7.56;100.00;95864.85;106693;1283;22649;-85
2023/10/27 01:42:50;;;;;;;24.10;21.90;;;;;;;7.51;100.00;95857.86;106607;1275;22591;-85
2023/10/27 01:45:18;;;;;;;25.70;23.30;;;;;;;7.44;100.00;95852.88;106784;1283;22621;-85
2023/10/27 01:47:46;;;;;;;22.10;20.10;;;;;;;7.39;100.00;95849.85;106735;1279;22558;-86
2023/10/27 01:50:14;;;;;;;20.20;18.30;;;;;;;7.31;100.00;95844.30;106802;1271;22712;-85
2023/10/27 01:52:42;;;;;;;18.70;17.00;;;;;;;7.25;100.00;95841.58;106789;1268;25300;-87
2023/10/27 01:55:10;;;;;;;21.90;19.90;;;;;;;7.22;100.00;95838.98;106608;1284;22551;-86
2023/10/27 01:57:39;;;;;;;26.50;24.00;;;;;;;7.22;100.00;95838.45;106582;1274;22760;-86
2023/10/27 02:00:07;;;;;;;24.60;22.40;;;;;;;7.17;100.00;95837.52;106623;1275;22616;-86
2023/10/27 02:02:39;;;;;;;25.90;23.40;;;;;;;7.14;100.00;95836.88;106658;1271;23424;-85
2023/10/27 02:05:08;;;;;;;23.10;20.90;;;;;;;7.11;100.00;95834.52;106704;1281;22652;-85
2023/10/27 02:07:36;;;;;;;20.90;19.00;;;;;;;7.09;100.00;95824.69;106755;1283;25241;-85
2023/10/27 02:10:05;;;;;;;19.50;17.60;;;;;;;7.09;100.00;95817.54;106636;1283;22717;-85
2023/10/27 02:12:33;;;;;;;20.90;19.00;;;;;;;7.04;100.00;95812.72;106623;1283;25373;-85
2023/10/27 02:15:01;;;;;;;24.50;22.00;;;;;;;6.99;100.00;95808.55;106515;1274;22781;-85
2023/10/27 02:17:29;;;;;;;19.00;16.90;;;;;;;6.98;100.00;95812.70;106655;1283;25429;-85
2023/10/27 02:19:57;;;;;;;17.10;15.30;;;;;;;6.93;100.00;95811.60;106651;1276;22651;-85
2023/10/27 02:22:25;;;;;;;17.80;16.20;;;;;;;6.88;100.00;95812.86;106482;1283;23158;-87
2023/10/27 02:24:53;;;;;;;16.40;14.70;;;;;;;6.80;100.00;95809.17;106667;1282;22527;-86
2023/10/27 02:27:21;;;;;;;15.60;14.20;;;;;;;6.79;100.00;95814.08;106645;1283;24238;-86
2023/10/27 02:29:49;;;;;;;18.30;16.50;;;;;;;6.78;100.00;95814.78;106516;1283;22606;-86
2023/10/27 02:32:18;;;;;;;18.00;16.40;;;;;;;6.77;100.00;95815.14;106706;1283;24045;-87
2023/10/27 02:34:45;;;;;;;17.50;15.90;;;;;;;6.77;100.00;95816.15;106615;1283;24237;-86
2023/10/27 02:37:13;;;;;;;17.10;15.50;;;;;;;6.78;100.00;95817.55;106587;1283;24301;-86
2023/10/27 02:39:41;;;;;;;18.40;16.80;;;;;;;6.77;100.00;95813.76;106812;1283;24233;-87
2023/10/27 02:42:09;;;;;;;16.60;15.00;;;;;;;6.75;100.00;95813.52;106825;1281;24397;-89
2023/10/27 02:44:38;;;;;;;19.20;17.50;;;;;;;6.72;100.00;95810.91;106821;1283;24233;-88
2023/10/27 02:47:06;;;;;;;17.80;15.90;;;;;;;6.78;100.00;95811.35;106591;1283;23816;-86
2023/10/27 02:49:34;;;;;;;27.70;25.40;;;;;;;6.97;100.00;95804.90;106514;1283;22549;-87
2023/10/27 02:52:02;;;;;;;18.80;16.90;;;;;;;7.06;100.00;95805.44;106600;1275;22664;-87
2023/10/27 02:54:30;;;;;;;20.60;18.60;;;;;;;7.08;100.00;95804.11;106718;1283;22570;-87
2023/10/27 02:56:58;;;;;;;46.20;42.30;;;;;;;7.05;100.00;95805.25;106756;1259;25611;-87
2023/10/27 02:59:26;;;;;;;20.40;18.50;;;;;;;7.07;100.00;95807.98;106717;1275;23006;-87
2023/10/27 03:01:54;;;;;;;20.90;18.80;;;;;;;6.98;100.00;95809.14;106534;1282;24103;-87
2023/10/27 03:04:22;;;;;;;19.80;17.80;;;;;;;6.92;100.00;95808.14;106613;1280;22542;-87
2023/10/27 03:06:50;;;;;;;18.00;15.90;;;;;;;6.95;100.00;95808.84;106665;1281;22530;-87
2023/10/27 03:09:18;;;;;;;19.90;18.30;;;;;;;6.95;100.00;95812.84;106621;1283;23366;-87
2023/10/27 03:11:46;;;;;;;23.10;20.80;;;;;;;6.95;100.00;95817.27;106561;1274;25264;-88
2023/10/27 03:14:15;;;;;;;22.70;20.70;;;;;;;6.96;100.00;95817.60;106727;1283;25895;-89
2023/10/27 03:16:43;;;;;;;33.00;30.10;;;;;;;6.96;100.00;95808.97;106603;1282;22658;-87
2023/10/27 03:19:12;;;;;;;20.50;18.80;;;;;;;6.92;100.00;95803.98;106721;1281;25354;-88
2023/10/27 03:21:40;;;;;;;20.00;18.10;;;;;;;6.81;100.00;95799.31;106779;1283;24433;-87
2023/10/27 03:24:09;;;;;;;22.20;19.80;;;;;;;6.75;100.00;95797.94;106550;1283;24370;-87
2023/10/27 03:26:38;;;;;;;20.00;18.20;;;;;;;6.74;100.00;95795.39;106757;1283;25376;-88
2023/10/27 03:29:07;;;;;;;29.90;27.20;;;;;;;6.73;100.00;95793.45;106743;1280;25506;-88
2023/10/27 03:32:35;;;;;;;21.30;19.50;;;;;;;6.70;100.00;95792.02;106820;1283;25478;-87
2023/10/27 03:36:11;;;;;;;20.20;18.40;;;;;;;6.60;100.00;95789.05;106550;1271;24337;-88
2023/10/27 03:40:40;;;;;;;15.20;13.70;;;;;;;6.49;100.00;95785.70;106352;1286;22562;-87
2023/10/27 03:45:09;;;;;;;15.20;13.20;;;;;;;6.36;100.00;95772.86;106278;1281;24224;-88
2023/10/27 03:49:37;;;;;;;14.30;12.70;;;;;;;6.31;100.00;95771.21;106176;1290;22547;-87
2023/10/27 03:53:08;;;;;;;14.90;12.70;;;;;;;6.37;100.00;95774.57;106674;1283;22806;-86
2023/10/27 03:55:42;;;;;;;15.10;13.60;;;;;;;6.42;100.00;95771.27;106709;1281;22574;-88
2023/10/27 03:58:17;;;;;;;15.70;14.10;;;;;;;6.47;100.00;95770.40;106811;1278;22540;-86
2023/10/27 04:00:48;;;;;;;20.90;18.80;;;;;;;6.50;100.00;95778.70;106766;1270;24805;-87
2023/10/27 04:03:16;;;;;;;16.70;12.50;;;;;;;6.58;100.00;95779.63;106710;1283;22771;-87
2023/10/27 04:05:44;;;;;;;13.50;12.30;;;;;;;6.69;100.00;95776.15;106726;1283;25362;-86
2023/10/27 04:08:12;;;;;;;11.60;10.40;;;;;;;6.79;100.00;95774.94;106585;1268;25233;-88
2023/10/27 04:10:40;;;;;;;14.90;13.60;;;;;;;6.83;100.00;95769.10;106636;1283;25518;-88
2023/10/27 04:13:08;;;;;;;18.20;16.50;;;;;;;6.88;100.00;95767.20;106528;1274;22560;-87
2023/10/27 04:15:40;;;;;;;14.30;13.10;;;;;;;6.91;100.00;95769.29;106664;1283;24472;-86
2023/10/27 04:18:09;;;;;;;27.40;25.10;;;;;;;6.82;100.00;95770.04;106769;1273;24216;-89
2023/10/27 04:20:38;;;;;;;33.30;30.70;;;;;;;6.78;100.00;95760.91;106952;1274;25315;-86
2023/10/27 04:23:07;;;;;;;26.50;24.30;;;;;;;6.88;100.00;95759.05;107275;1283;23386;-87
2023/10/27 04:25:35;;;;;;;16.00;14.40;;;;;;;6.95;100.00;95762.10;108278;1283;23209;-86
2023/10/27 04:28:03;;;;;;;20.40;18.40;;;;;;;6.93;100.00;95761.17;109014;1281;22699;-86
2023/10/27 04:30:31;;;;;;;20.20;18.10;;;;;;;6.95;100.00;95756.53;107099;1283;22873;-88
2023/10/27 04:33:00;;;;;;;19.00;17.30;;;;;;;6.98;100.00;95754.87;106589;1284;22562;-87
2023/10/27 04:35:28;;;;;;;32.80;30.30;;;;;;;6.98;100.00;95753.79;106645;1284;22807;-87
2023/10/27 04:37:58;;;;;;;25.30;23.30;;;;;;;7.06;100.00;95750.11;106712;1284;25428;-89
2023/10/27 04:40:28;;;;;;;21.60;19.70;;;;;;;7.20;100.00;95745.71;109083;1281;22668;-86
2023/10/27 04:42:58;;;;;;;17.90;16.30;;;;;;;7.38;100.00;95743.58;108675;1283;22572;-87
2023/10/27 04:45:26;;;;;;;22.70;20.80;;;;;;;7.54;100.00;95739.48;109173;1283;22510;-87
2023/10/27 04:47:55;;;;;;;16.70;15.30;;;;;;;7.62;100.00;95733.51;108022;1283;25422;-88
2023/10/27 04:50:24;;;;;;;16.80;15.30;;;;;;;7.63;100.00;95730.57;106761;1283;22618;-86
2023/10/27 04:52:52;;;;;;;15.40;13.90;;;;;;;7.62;100.00;95727.79;106738;1284;25472;-87
2023/10/27 04:55:20;;;;;;;17.10;15.70;;;;;;;7.64;100.00;95720.35;106657;1284;22571;-87
2023/10/27 04:57:48;;;;;;;17.00;15.40;;;;;;;7.74;100.00;95721.43;106589;1278;25300;-86
2023/10/27 05:00:16;;;;;;;20.10;13.30;;;;;;;7.85;100.00;95726.31;106656;1284;22540;-87
2023/10/27 05:02:44;;;;;;;13.40;12.10;;;;;;;7.96;100.00;95720.70;106654;1273;22551;-87
2023/10/27 05:05:12;;;;;;;12.40;11.10;;;;;;;8.09;100.00;95712.65;106480;1284;22544;-87
2023/10/27 05:07:40;;;;;;;12.40;10.90;;;;;;;8.20;100.00;95716.60;106574;1271;23266;-87
2023/10/27 05:10:09;;;;;;;11.90;10.80;;;;;;;8.30;100.00;95718.65;106451;1284;22656;-87
2023/10/27 05:12:37;;;;;;;12.50;11.20;;;;;;;8.37;100.00;95713.45;106626;1277;24501;-87
2023/10/27 05:15:05;;;;;;;14.80;10.70;;;;;;;8.44;100.00;95713.36;106543;1280;25322;-88
2023/10/27 05:17:35;;;;;;;17.50;15.80;;;;;;;8.53;100.00;95712.80;106533;1284;22650;-87
2023/10/27 05:20:10;;;;;;;17.40;15.50;;;;;;;8.60;100.00;95706.62;106518;1284;22543;-87
2023/10/27 05:22:38;;;;;;;13.80;12.60;;;;;;;8.63;100.00;95698.83;106557;1281;22592;-87
2023/10/27 05:25:06;;;;;;;13.40;12.10;;;;;;;8.67;100.00;95699.83;106566;1273;22561;-87
2023/10/27 05:27:39;;;;;;;13.40;12.00;;;;;;;8.71;100.00;95704.95;106515;1284;24367;-87
2023/10/27 05:30:08;;;;;;;15.70;14.20;;;;;;;8.72;100.00;95709.20;106475;1274;26114;-87
2023/10/27 05:32:36;;;;;;;15.30;13.90;;;;;;;8.72;100.00;95706.52;106501;1282;23059;-87
2023/10/27 05:35:04;;;;;;;19.60;17.80;;;;;;;8.73;100.00;95703.61;106433;1284;22537;-87
2023/10/27 05:37:32;;;;;;;16.30;14.90;;;;;;;8.74;100.00;95699.06;106524;1284;22538;-87
2023/10/27 05:40:03;;;;;;;13.30;12.00;;;;;;;8.75;100.00;95694.48;106611;1273;24246;-88
2023/10/27 05:42:31;;;;;;;12.00;10.90;;;;;;;8.75;100.00;95694.02;106516;1283;22575;-88
2023/10/27 05:44:59;;;;;;;15.50;12.20;;;;;;;8.76;100.00;95688.52;106561;1284;22609;-88
2023/10/27 05:47:27;;;;;;;13.70;12.30;;;;;;;8.78;100.00;95680.84;106554;1284;22556;-89
2023/10/27 05:49:57;;;;;;;12.60;11.30;;;;;;;8.80;100.00;95679.48;106485;1284;22828;-87
2023/10/27 05:52:25;;;;;;;15.50;14.00;;;;;;;8.81;100.00;95680.22;106659;1284;22549;-88
2023/10/27 05:54:53;;;;;;;13.40;12.10;;;;;;;8.85;100.00;95684.16;106653;1282;22573;-86
2023/10/27 05:57:21;;;;;;;14.50;13.10;;;;;;;8.89;100.00;95689.04;106543;1280;26506;-86
2023/10/27 05:59:49;;;;;;;13.20;12.00;;;;;;;8.96;100.00;95691.23;106562;1270;22957;-86
2023/10/27 06:02:17;;;;;;;19.50;17.50;;;;;;;9.04;100.00;95693.75;106618;1272;22534;-86
2023/10/27 06:04:45;;;;;;;26.90;24.50;;;;;;;9.11;100.00;95694.78;106573;1284;24364;-87
2023/10/27 06:07:15;;;;;;;18.30;16.30;;;;;;;9.18;100.00;95697.27;106618;1284;25287;-87
2023/10/27 06:09:44;;;;;;;19.30;15.20;;;;;;;9.24;100.00;95698.65;106535;1284;22540;-86
2023/10/27 06:12:12;;;;;;;17.80;16.10;;;;;;;9.29;100.00;95694.87;106629;1284;22532;-87
2023/10/27 06:14:44;;;;;;;14.90;13.50;;;;;;;9.35;100.00;95698.02;106613;1284;22580;-87
2023/10/27 06:17:13;;;;;;;21.00;19.20;;;;;;;9.41;100.00;95694.50;106542;1284;22532;-87
2023/10/27 06:19:41;;;;;;;17.00;15.50;;;;;;;9.46;100.00;95692.25;106544;1282;25619;-86
2023/10/27 06:22:09;;;;;;;14.30;13.00;;;;;;;9.50;100.00;95692.33;106574;1270;22590;-89
2023/10/27 06:24:37;;;;;;;12.70;11.40;;;;;;;9.52;100.00;95693.02;106627;1282;23949;-89
2023/10/27 06:27:05;;;;;;;12.20;11.20;;;;;;;9.59;100.00;95690.81;106523;1284;22653;-86
2023/10/27 06:29:34;;;;;;;13.30;11.90;;;;;;;9.65;100.00;95683.27;106611;1271;22737;-83
2023/10/27 06:32:03;;;;;;;19.80;18.00;;;;;;;9.69;100.00;95685.75;106623;1277;22658;-83
2023/10/27 06:34:31;;;;;;;24.30;22.20;;;;;;;9.71;100.00;95690.04;106669;1273;23348;-84
2023/10/27 06:37:00;;;;;;;22.80;19.70;;;;;;;9.73;100.00;95691.23;106492;1284;22589;-81
2023/10/27 06:39:29;;;;;;;26.60;24.00;;;;;;;9.77;100.00;95692.18;106756;1270;22737;-83
2023/10/27 06:41:58;;;;;;;18.10;16.30;;;;;;;9.82;100.00;95693.05;106559;1273;22779;-79
2023/10/27 06:44:26;;;;;;;16.70;15.10;;;;;;;9.83;100.00;95699.17;107114;1270;23433;-81
2023/10/27 06:46:56;;;;;;;17.50;15.80;;;;;;;9.84;100.00;95707.09;106539;1271;24380;-81
2023/10/27 06:49:25;;;;;;;22.10;20.10;;;;;;;9.82;100.00;95709.05;106545;1260;23901;-79
2023/10/27 06:51:53;;;;;;;21.60;19.50;;;;;;;9.80;100.00;95704.09;106631;1280;22566;-78
2023/10/27 06:54:21;;;;;;;24.00;21.90;;;;;;;9.83;100.00;95703.46;106475;1276;22549;-79
2023/10/27 06:56:50;;;;;;;21.90;19.80;;;;;;;9.87;100.00;95704.55;106454;1284;22557;-79
2023/10/27 06:59:18;;;;;;;20.80;17.90;;;;;;;9.88;100.00;95706.14;106503;1281;22626;-79
2023/10/27 07:01:46;;;;;;;18.70;16.80;;;;;;;9.92;100.00;95709.14;106460;1284;22646;-79
2023/10/27 07:04:14;;;;;;;18.30;16.60;;;;;;;9.98;100.00;95704.98;106814;1282;22559;-80
2023/10/27 07:06:44;;;;;;;14.00;12.60;;;;;;;10.05;100.00;95703.30;106535;1276;22628;-80
2023/10/27 07:09:12;;;;;;;11.80;10.70;;;;;;;10.14;100.00;95701.28;106546;1277;22700;-84
2023/10/27 07:11:39;;;;;;;11.70;9.50;;;;;;;10.22;100.00;95690.15;106762;1280;25518;-82
2023/10/27 07:14:08;;;;;;;10.70;9.60;;;;;;;10.30;100.00;95688.30;106636;1270;25426;-81
2023/10/27 07:16:36;;;;;;;9.80;8.10;;;;;;;10.37;100.00;95684.06;106691;1271;22547;-80
2023/10/27 07:19:05;;;;;;;10.00;8.80;;;;;;;10.42;100.00;95682.70;106577;1277;22539;-80
2023/10/27 07:21:34;;;;;;;10.70;8.10;;;;;;;10.48;100.00;95685.08;106633;1276;25303;-80
2023/10/27 07:24:02;;;;;;;9.10;7.40;;;;;;;10.56;100.00;95683.00;106607;1270;22663;-81
2023/10/27 07:26:30;;;;;;;8.10;6.00;;;;;;;10.62;100.00;95675.90;106644;1277;23897;-80
2023/10/27 07:28:58;;;;;;;7.50;6.80;;;;;;;10.68;100.00;95671.64;106658;1277;24362;-82
2023/10/27 07:31:25;;;;;;;8.30;6.30;;;;;;;10.74;100.00;95665.91;106686;1284;24689;-81
2023/10/27 07:33:55;;;;;;;8.70;5.70;;;;;;;10.76;100.00;95666.34;106790;1277;22530;-82
2023/10/27 07:36:23;;;;;;;5.40;4.40;;;;;;;10.77;100.00;95658.66;106778;1270;23964;-83
2023/10/27 07:38:51;;;;;;;8.50;4.50;;;;;;;10.79;100.00;95658.24;106655;1270;25413;-82
2023/10/27 07:41:19;;;;;;;7.00;4.20;;;;;;;10.83;100.00;95656.39;106824;1284;22562;-89
2023/10/27 07:43:47;;;;;;;5.70;4.70;;;;;;;10.87;100.00;95653.86;106771;1284;25756;-85
2023/10/27 07:46:16;;;;;;;13.30;12.00;;;;;;;10.92;100.00;95647.11;106614;1274;22716;-85
2023/10/27 07:48:44;;;;;;;14.10;12.60;;;;;;;10.97;100.00;95644.11;106733;1284;24213;-85
2023/10/27 07:51:12;;;;;;;10.70;7.10;;;;;;;11.00;100.00;95638.41;106552;1284;23169;-83
2023/10/27 07:53:40;;;;;;;8.00;5.50;;;;;;;11.06;100.00;95633.51;106604;1284;24821;-85
2023/10/27 07:56:11;;;;;;;13.00;7.60;;;;;;;11.12;100.00;95627.31;106615;1272;24221;-85
2023/10/27 07:58:39;;;;;;;7.90;6.80;;;;;;;11.19;100.00;95624.66;106641;1284;22549;-84
2023/10/27 08:01:07;;;;;;;9.90;9.00;;;;;;;11.23;100.00;95618.51;106745;1270;22659;-85
2023/10/27 08:03:35;;;;;;;15.10;13.40;;;;;;;11.25;100.00;95613.29;106628;1284;25614;-85
2023/10/27 08:06:08;;;;;;;9.70;6.70;;;;;;;11.24;100.00;95614.59;106763;1284;22578;-85
2023/10/27 08:08:37;;;;;;;7.60;6.00;;;;;;;11.25;100.00;95615.14;106867;1283;22551;-85
2023/10/27 08:11:06;;;;;;;6.90;5.50;;;;;;;11.27;100.00;95613.95;106676;1282;25441;-84
2023/10/27 08:13:34;;;;;;;7.10;6.10;;;;;;;11.30;100.00;95614.31;106703;1283;23893;-84
2023/10/27 08:16:02;;;;;;;11.40;6.40;;;;;;;11.34;100.00;95615.70;106610;1284;25262;-85
2023/10/27 08:18:30;;;;;;;8.30;7.00;;;;;;;11.38;100.00;95618.52;108945;1283;24200;-84
2023/10/27 08:20:58;;;;;;;9.70;8.50;;;;;;;11.37;100.00;95610.27;108155;1284;22549;-82
2023/10/27 08:23:27;;;;;;;9.80;8.30;;;;;;;11.42;100.00;95612.19;107626;1270;24143;-81
2023/10/27 08:25:55;;;;;;;8.90;6.60;;;;;;;11.47;100.00;95607.20;106935;1284;24257;-83
2023/10/27 08:28:23;;;;;;;7.70;5.10;;;;;;;11.53;100.00;95602.98;106672;1284;22598;-82
2023/10/27 08:30:51;;;;;;;7.90;4.70;;;;;;;11.57;100.00;95601.49;106814;1284;24045;-85
2023/10/27 08:33:19;;;;;;;6.90;5.10;;;;;;;11.59;100.00;95597.53;106575;1284;22826;-84
2023/10/27 08:35:47;;;;;;;10.30;5.60;;;;;;;11.59;100.00;95598.16;106598;1284;23256;-81
2023/10/27 08:38:15;;;;;;;8.80;5.10;;;;;;;11.59;100.00;95604.85;106664;1270;24363;-83
2023/10/27 08:40:44;;;;;;;7.30;5.10;;;;;;;11.59;100.00;95604.63;106646;1280;24266;-82
2023/10/27 08:43:13;;;;;;;6.70;5.20;;;;;;;11.62;100.00;95600.05;106544;1269;22775;-83
2023/10/27 08:45:43;;;;;;;7.00;5.10;;;;;;;11.64;100.00;95600.14;106544;1284;24236;-84
2023/10/27 08:48:11;;;;;;;9.70;5.70;;;;;;;11.68;100.00;95597.90;106886;1284;25956;-84
2023/10/27 08:50:41;;;;;;;6.90;4.60;;;;;;;11.70;100.00;95597.16;106688;1270;22550;-85
2023/10/27 08:53:12;;;;;;;8.40;5.80;;;;;;;11.71;100.00;95593.41;106678;1284;22712;-88
2023/10/27 08:55:41;;;;;;;9.30;5.30;;;;;;;11.72;100.00;95587.79;106633;1284;22544;-87
2023/10/27 08:58:09;;;;;;;10.30;6.90;;;;;;;11.71;100.00;95586.23;106640;1283;24229;-86
2023/10/27 09:00:37;;;;;;;9.50;6.60;;;;;;;11.68;100.00;95584.11;106787;1284;24247;-82
2023/10/27 09:03:18;;;;;;;10.40;6.20;;;;;;;11.66;100.00;95581.68;106622;1279;22559;-83
2023/10/27 09:05:46;;;;;;;11.50;6.50;;;;;;;11.64;100.00;95579.88;106617;1280;24289;-83
2023/10/27 09:08:15;;;;;;;8.40;5.20;;;;;;;11.62;100.00;95577.15;106677;1279;22537;-83
2023/10/27 09:10:46;;;;;;;7.20;4.90;;;;;;;11.62;100.00;95577.14;106510;1283;25534;-81
2023/10/27 09:13:20;;;;;;;9.30;5.40;;;;;;;11.58;100.00;95576.55;106556;1270;24265;-83
2023/10/27 09:15:50;;;;;;;6.90;4.90;;;;;;;11.58;100.00;95577.48;106727;1269;22534;-85
2023/10/27 09:18:35;;;;;;;8.80;6.30;;;;;;;11.56;100.00;95577.30;106599;1284;25425;-84
2023/10/27 09:21:04;;;;;;;10.00;6.60;;;;;;;11.52;100.00;95573.67;106524;1284;25561;-83
2023/10/27 09:23:47;;;;;;;7.40;5.00;;;;;;;11.49;100.00;95572.33;106698;1269;24219;-84
2023/10/27 09:26:16;;;;;;;8.60;4.80;;;;;;;11.51;100.00;95566.82;106588;1284;22577;-84
2023/10/27 09:28:44;;;;;;;7.00;4.70;;;;;;;11.53;100.00;95562.60;106488;1270;22581;-84
2023/10/27 09:31:31;;;;;;;7.30;4.70;;;;;;;11.55;100.00;95559.55;106549;1284;24240;-84
2023/10/27 09:34:16;;;;;;;8.10;5.40;;;;;;;11.57;100.00;95557.89;106649;1268;24265;-86
2023/10/27 09:36:52;;;;;;;7.30;4.80;;;;;;;11.55;100.00;95550.23;106694;1283;22768;-80
2023/10/27 09:39:23;;;;;;;8.40;5.50;;;;;;;11.53;100.00;95552.11;106752;1276;23455;-82
2023/10/27 09:42:06;;;;;;;7.90;4.40;;;;;;;11.52;100.00;95546.79;106716;1284;23414;-85
2023/10/27 09:44:48;;;;;;;7.50;4.60;;;;;;;11.55;100.00;95541.73;106884;1277;22772;-82
2023/10/27 09:47:34;;;;;;;8.10;5.10;;;;;;;11.57;100.00;95543.25;106409;1284;213983;-82
2023/10/27 09:50:06;;;;;;;10.90;5.80;;;;;;;11.61;100.00;95536.28;106699;1283;23932;-82
2023/10/27 09:52:34;;;;;;;8.00;4.90;;;;;;;11.63;100.00;95534.70;106688;1273;22604;-83
2023/10/27 09:55:03;;;;;;;6.60;4.50;;;;;;;11.64;100.00;95530.70;106704;1270;25542;-82
2023/10/27 09:57:46;;;;;;;7.40;5.10;;;;;;;11.64;100.00;95532.48;106541;1284;24233;-83
2023/10/27 10:00:21;;;;;;;8.90;5.00;;;;;;;11.65;100.00;95526.41;106392;1284;24081;-81
2023/10/27 10:02:50;;;;;;;7.60;4.90;;;;;;;11.66;100.00;95522.57;106721;1284;25329;-81
2023/10/27 10:05:18;;;;;;;10.00;4.90;;;;;;;11.68;100.00;95517.75;106644;1283;23910;-83
2023/10/27 10:07:54;;;;;;;7.90;4.60;;;;;;;11.72;100.00;95515.41;106519;1270;22558;-83
2023/10/27 10:10:29;;;;;;;7.00;4.90;;;;;;;11.72;100.00;95513.95;106589;1269;22547;-82
2023/10/27 10:13:19;;;;;;;6.10;4.60;;;;;;;11.70;100.00;95508.13;106611;1284;22568;-81
2023/10/27 10:15:58;;;;;;;5.50;4.50;;;;;;;11.68;100.00;95503.73;106551;1260;26543;-82
2023/10/27 10:18:35;;;;;;;6.70;4.70;;;;;;;11.70;100.00;95493.64;106771;1280;22971;-83
2023/10/27 10:21:06;;;;;;;8.10;5.70;;;;;;;11.71;100.00;95489.66;106578;1273;22674;-82
2023/10/27 10:23:37;;;;;;;7.40;5.00;;;;;;;11.75;100.00;95483.16;106588;1283;25539;-82
2023/10/27 10:26:05;;;;;;;7.90;5.10;;;;;;;11.75;100.00;95479.15;106685;1277;24279;-85
2023/10/27 10:28:34;;;;;;;8.80;5.80;;;;;;;11.72;100.00;95470.33;106768;1269;24265;-80
2023/10/27 10:31:09;;;;;;;7.20;5.60;;;;;;;11.69;100.00;95463.05;106582;1284;22610;-81
2023/10/27 10:33:38;;;;;;;12.80;11.50;;;;;;;11.69;100.00;95459.02;106683;1270;22641;-82
2023/10/27 10:36:14;;;;;;;9.40;7.30;;;;;;;11.69;100.00;95455.17;106684;1284;22555;-81
2023/10/27 10:38:57;;;;;;;10.40;6.90;;;;;;;11.68;100.00;95443.85;106657;1283;22746;-81
2023/10/27 10:41:40;;;;;;;9.10;6.80;;;;;;;11.67;100.00;95444.74;106593;1281;23410;-80
2023/10/27 10:44:13;;;;;;;8.20;6.70;;;;;;;11.62;100.00;95438.28;106771;1276;22544;-81
2023/10/27 10:46:43;;;;;;;10.60;9.60;;;;;;;11.58;100.00;95430.67;106697;1284;23149;-81
2023/10/27 10:49:21;;;;;;;10.20;9.20;;;;;;;11.57;100.00;95422.73;106802;1277;22827;-81
2023/10/27 10:51:57;;;;;;;10.30;6.10;;;;;;;11.58;100.00;95415.96;106561;1284;24270;-82
2023/10/27 10:54:30;;;;;;;8.90;5.60;;;;;;;11.57;100.00;95411.88;106673;1270;25756;-82
2023/10/27 10:57:08;;;;;;;7.80;4.90;;;;;;;11.55;100.00;95407.77;106691;1270;24263;-81
2023/10/27 10:59:36;;;;;;;7.70;5.50;;;;;;;11.52;100.00;95400.31;106613;1284;22644;-80
2023/10/27 11:02:07;;;;;;;10.30;6.20;;;;;;;11.52;100.00;95393.30;106660;1272;23960;-83
2023/10/27 11:04:35;;;;;;;7.60;6.80;;;;;;;11.51;100.00;95389.36;106738;1269;23024;-81
2023/10/27 11:07:16;;;;;;;7.40;5.30;;;;;;;11.50;100.00;95385.50;106670;1277;22560;-81
2023/10/27 11:09:44;;;;;;;9.80;5.80;;;;;;;11.51;100.00;95381.05;106620;1284;22751;-81
2023/10/27 11:12:25;;;;;;;6.80;5.20;;;;;;;11.51;100.00;95380.34;106606;1284;25352;-81
2023/10/27 11:14:54;;;;;;;7.00;5.00;;;;;;;11.49;100.00;95376.31;106771;1283;24231;-83
2023/10/27 11:17:22;;;;;;;7.60;5.00;;;;;;;11.50;100.00;95370.61;106664;1278;22721;-82
2023/10/27 11:19:54;;;;;;;9.30;8.40;;;;;;;11.52;100.00;95370.95;106775;1276;22553;-82
2023/10/27 11:22:24;;;;;;;9.00;8.00;;;;;;;11.54;100.00;95368.60;106650;1269;22555;-82
2023/10/27 11:24:53;;;;;;;9.40;8.50;;;;;;;11.56;100.00;95367.55;106693;1284;24457;-84
2023/10/27 11:27:23;;;;;;;9.00;7.20;;;;;;;11.57;100.00;95365.94;106624;1272;22596;-82
2023/10/27 11:29:58;;;;;;;9.60;6.00;;;;;;;11.57;100.00;95360.70;106898;1265;23063;-82
2023/10/27 11:32:26;;;;;;;8.20;7.00;;;;;;;11.58;100.00;95360.56;106783;1273;23412;-81